sensor_id;sensor_type;location;lat;lon;timestamp;pressure;altitude;pressure_sealevel;temperature;humidity
10658;BME280;5377;43.276;26.930;2023-03-04T00:01:22;99197.06;;;6.62;100.00
10658;BME280;5377;43.276;26.930;2023-03-04T00:03:49;99189.25;;;6.60;100.00
10658;BME280;5377;43.276;26.930;2023-03-04T00:06:16;99195.59;;;6.51;100.00
10658;BME280;5377;43.276;26.930;2023-03-04T00:08:42;99195.88;;;6.64;100.00
10658;BME280;5377;43.276;26.930;2023-03-04T00:11:10;99186.75;;;6.58;100.00
10658;BME280;5377;43.276;26.930;2023-03-04T00:13:37;99157.81;;;6.33;100.00
10658;BME280;5377;43.276;26.930;2023-03-04T00:16:04;99197.25;;;6.60;100.00
10658;BME280;5377;43.276;26.930;2023-03-04T00:18:31;99201.03;;;6.66;100.00
10658;BME280;5377;43.276;26.930;2023-03-04T00:20:58;99206.19;;;6.59;100.00
10658;BME280;5377;43.276;26.930;2023-03-04T00:23:25;99201.38;;;6.32;100.00
10658;BME280;5377;43.276;26.930;2023-03-04T00:25:52;99201.63;;;6.45;100.00
10658;BME280;5377;43.276;26.930;2023-03-04T00:28:20;99202.22;;;6.55;100.00
10658;BME280;5377;43.276;26.930;2023-03-04T00:30:46;99207.38;;;6.56;100.00
10658;BME280;5377;43.276;26.930;2023-03-04T00:33:13;99202.38;;;6.62;100.00
10658;BME280;5377;43.276;26.930;2023-03-04T00:35:40;99194.22;;;6.63;100.00
10658;BME280;5377;43.276;26.930;2023-03-04T00:38:07;99198.22;;;6.59;100.00
10658;BME280;5377;43.276;26.930;2023-03-04T00:40:34;99197.06;;;6.62;100.00
10658;BME280;5377;43.276;26.930;2023-03-04T00:43:01;99195.06;;;6.55;100.00
10658;BME280;5377;43.276;26.930;2023-03-04T00:45:30;99210.22;;;6.55;100.00
10658;BME280;5377;43.276;26.930;2023-03-04T00:47:56;99207.56;;;6.55;100.00
10658;BME280;5377;43.276;26.930;2023-03-04T00:50:23;99196.78;;;6.48;100.00
10658;BME280;5377;43.276;26.930;2023-03-04T00:52:50;99202.47;;;6.45;100.00
10658;BME280;5377;43.276;26.930;2023-03-04T00:55:17;99206.56;;;6.56;100.00
10658;BME280;5377;43.276;26.930;2023-03-04T00:57:44;99198.91;;;6.53;100.00
10658;BME280;5377;43.276;26.930;2023-03-04T01:00:11;99190.00;;;6.46;100.00
10658;BME280;5377;43.276;26.930;2023-03-04T01:02:40;99180.53;;;6.43;100.00
10658;BME280;5377;43.276;26.930;2023-03-04T01:05:07;99179.69;;;6.43;100.00
10658;BME280;5377;43.276;26.930;2023-03-04T01:07:34;99180.41;;;6.37;100.00
10658;BME280;5377;43.276;26.930;2023-03-04T01:10:01;99187.19;;;6.39;100.00
10658;BME280;5377;43.276;26.930;2023-03-04T01:12:28;99184.06;;;6.36;100.00
10658;BME280;5377;43.276;26.930;2023-03-04T01:14:55;99179.03;;;6.41;100.00
10658;BME280;5377;43.276;26.930;2023-03-04T01:17:21;99183.06;;;6.37;100.00
10658;BME280;5377;43.276;26.930;2023-03-04T01:19:49;99185.38;;;6.40;100.00
10658;BME280;5377;43.276;26.930;2023-03-04T01:22:16;99187.69;;;6.43;100.00
10658;BME280;5377;43.276;26.930;2023-03-04T01:24:43;99146.25;;;6.17;100.00
10658;BME280;5377;43.276;26.930;2023-03-04T01:27:10;99185.66;;;6.45;100.00
10658;BME280;5377;43.276;26.930;2023-03-04T01:29:37;99184.00;;;6.44;100.00
10658;BME280;5377;43.276;26.930;2023-03-04T01:32:04;99185.03;;;6.43;100.00
10658;BME280;5377;43.276;26.930;2023-03-04T01:34:31;99181.53;;;6.42;100.00
10658;BME280;5377;43.276;26.930;2023-03-04T01:36:59;99181.00;;;6.16;100.00
10658;BME280;5377;43.276;26.930;2023-03-04T01:39:26;99180.81;;;6.25;100.00
10658;BME280;5377;43.276;26.930;2023-03-04T01:41:53;99175.09;;;6.37;100.00
10658;BME280;5377;43.276;26.930;2023-03-04T01:44:20;99178.69;;;6.44;100.00
10658;BME280;5377;43.276;26.930;2023-03-04T01:46:49;99173.72;;;6.41;100.00
10658;BME280;5377;43.276;26.930;2023-03-04T01:49:17;99175.44;;;6.34;100.00
10658;BME280;5377;43.276;26.930;2023-03-04T01:51:47;99175.47;;;6.25;100.00
10658;BME280;5377;43.276;26.930;2023-03-04T01:54:16;99169.59;;;6.38;100.00
10658;BME280;5377;43.276;26.930;2023-03-04T01:56:44;99167.09;;;6.37;100.00
10658;BME280;5377;43.276;26.930;2023-03-04T01:59:13;99156.16;;;6.32;100.00
10658;BME280;5377;43.276;26.930;2023-03-04T02:01:42;99163.66;;;6.28;100.00
10658;BME280;5377;43.276;26.930;2023-03-04T02:04:10;99173.44;;;6.36;100.00
10658;BME280;5377;43.276;26.930;2023-03-04T02:06:38;99177.03;;;6.43;100.00
10658;BME280;5377;43.276;26.930;2023-03-04T02:09:06;99161.78;;;6.37;100.00
10658;BME280;5377;43.276;26.930;2023-03-04T02:11:35;99173.72;;;6.41;100.00
10658;BME280;5377;43.276;26.930;2023-03-04T02:14:03;99167.75;;;6.39;100.00
10658;BME280;5377;43.276;26.930;2023-03-04T02:16:31;99150.63;;;6.41;100.00
10658;BME280;5377;43.276;26.930;2023-03-04T02:18:59;99164.63;;;6.58;100.00
10658;BME280;5377;43.276;26.930;2023-03-04T02:21:28;99158.31;;;6.59;100.00
10658;BME280;5377;43.276;26.930;2023-03-04T02:24:02;99149.16;;;6.62;100.00
10658;BME280;5377;43.276;26.930;2023-03-04T02:26:32;99153.94;;;6.66;100.00
10658;BME280;5377;43.276;26.930;2023-03-04T02:29:00;99153.22;;;6.49;100.00
10658;BME280;5377;43.276;26.930;2023-03-04T02:31:30;99149.84;;;6.55;100.00
10658;BME280;5377;43.276;26.930;2023-03-04T02:34:00;99152.03;;;6.52;100.00
10658;BME280;5377;43.276;26.930;2023-03-04T02:36:28;99155.03;;;6.49;100.00
10658;BME280;5377;43.276;26.930;2023-03-04T02:39:00;99161.72;;;6.45;100.00
10658;BME280;5377;43.276;26.930;2023-03-04T02:41:29;99159.13;;;6.37;100.00
10658;BME280;5377;43.276;26.930;2023-03-04T02:43:57;99160.00;;;6.29;100.00
10658;BME280;5377;43.276;26.930;2023-03-04T02:46:24;99167.47;;;6.34;100.00
10658;BME280;5377;43.276;26.930;2023-03-04T02:48:51;99161.13;;;6.35;100.00
10658;BME280;5377;43.276;26.930;2023-03-04T02:51:18;99155.34;;;6.23;100.00
10658;BME280;5377;43.276;26.930;2023-03-04T02:53:45;99167.47;;;6.34;100.00
10658;BME280;5377;43.276;26.930;2023-03-04T02:56:11;99155.81;;;6.35;100.00
10658;BME280;5377;43.276;26.930;2023-03-04T02:58:38;99162.38;;;6.47;100.00
10658;BME280;5377;43.276;26.930;2023-03-04T03:01:07;99155.81;;;6.57;100.00
10658;BME280;5377;43.276;26.930;2023-03-04T03:03:34;99148.66;;;6.58;100.00
10658;BME280;5377;43.276;26.930;2023-03-04T03:06:00;99148.19;;;6.54;100.00
10658;BME280;5377;43.276;26.930;2023-03-04T03:08:27;99152.97;;;6.59;100.00
10658;BME280;5377;43.276;26.930;2023-03-04T03:10:54;99112.25;;;6.36;100.00
10658;BME280;5377;43.276;26.930;2023-03-04T03:13:21;99153.84;;;6.60;100.00
10658;BME280;5377;43.276;26.930;2023-03-04T03:15:48;99152.31;;;6.57;100.00
10658;BME280;5377;43.276;26.930;2023-03-04T03:18:16;99140.03;;;6.56;100.00
10658;BME280;5377;43.276;26.930;2023-03-04T03:20:42;99143.34;;;6.58;100.00
10658;BME280;5377;43.276;26.930;2023-03-04T03:23:09;99137.06;;;6.51;100.00
10658;BME280;5377;43.276;26.930;2023-03-04T03:25:36;99134.88;;;6.54;100.00
10658;BME280;5377;43.276;26.930;2023-03-04T03:28:03;99078.47;;;6.13;100.00
10658;BME280;5377;43.276;26.930;2023-03-04T03:30:30;99142.00;;;6.62;100.00
10658;BME280;5377;43.276;26.930;2023-03-04T03:32:56;99139.56;;;6.75;100.00
10658;BME280;5377;43.276;26.930;2023-03-04T03:35:25;99143.16;;;6.82;100.00
10658;BME280;5377;43.276;26.930;2023-03-04T03:37:51;99139.50;;;6.83;100.00
10658;BME280;5377;43.276;26.930;2023-03-04T03:40:18;99137.19;;;6.80;100.00
10658;BME280;5377;43.276;26.930;2023-03-04T03:42:45;99130.78;;;6.89;100.00
10658;BME280;5377;43.276;26.930;2023-03-04T03:45:12;99137.50;;;6.85;100.00
10658;BME280;5377;43.276;26.930;2023-03-04T03:47:39;99136.38;;;6.80;100.00
10658;BME280;5377;43.276;26.930;2023-03-04T03:50:06;99135.44;;;6.73;100.00
10658;BME280;5377;43.276;26.930;2023-03-04T03:52:34;99136.34;;;6.65;100.00
10658;BME280;5377;43.276;26.930;2023-03-04T03:55:01;99138.53;;;6.62;100.00
10658;BME280;5377;43.276;26.930;2023-03-04T03:57:28;99134.72;;;6.56;100.00
10658;BME280;5377;43.276;26.930;2023-03-04T03:59:55;99132.00;;;6.41;100.00
10658;BME280;5377;43.276;26.930;2023-03-04T04:02:22;99140.31;;;6.38;100.00
10658;BME280;5377;43.276;26.930;2023-03-04T04:04:49;99130.88;;;6.36;100.00
10658;BME280;5377;43.276;26.930;2023-03-04T04:07:16;99130.28;;;6.25;100.00
10658;BME280;5377;43.276;26.930;2023-03-04T04:09:44;99131.59;;;6.21;100.00
10658;BME280;5377;43.276;26.930;2023-03-04T04:12:13;99137.63;;;6.15;100.00
10658;BME280;5377;43.276;26.930;2023-03-04T04:14:41;99118.69;;;6.10;100.00
10658;BME280;5377;43.276;26.930;2023-03-04T04:17:08;99147.53;;;6.21;100.00
10658;BME280;5377;43.276;26.930;2023-03-04T04:19:35;99150.38;;;6.20;100.00
10658;BME280;5377;43.276;26.930;2023-03-04T04:22:05;99150.22;;;6.21;100.00
10658;BME280;5377;43.276;26.930;2023-03-04T04:24:31;99156.88;;;6.25;100.00
10658;BME280;5377;43.276;26.930;2023-03-04T04:26:59;99159.00;;;6.30;100.00
10658;BME280;5377;43.276;26.930;2023-03-04T04:29:27;99148.66;;;6.35;100.00
10658;BME280;5377;43.276;26.930;2023-03-04T04:31:54;99152.50;;;6.33;100.00
10658;BME280;5377;43.276;26.930;2023-03-04T04:34:21;99145.16;;;6.35;100.00
10658;BME280;5377;43.276;26.930;2023-03-04T04:36:48;99140.69;;;6.35;100.00
10658;BME280;5377;43.276;26.930;2023-03-04T04:39:14;99147.66;;;6.36;100.00
10658;BME280;5377;43.276;26.930;2023-03-04T04:41:43;99155.09;;;6.41;100.00
10658;BME280;5377;43.276;26.930;2023-03-04T04:44:12;99158.41;;;6.43;100.00
10658;BME280;5377;43.276;26.930;2023-03-04T04:46:40;99158.59;;;6.41;100.00
10658;BME280;5377;43.276;26.930;2023-03-04T04:49:07;99170.72;;;6.44;100.00
10658;BME280;5377;43.276;26.930;2023-03-04T04:51:36;99163.91;;;6.41;100.00
10658;BME280;5377;43.276;26.930;2023-03-04T04:54:04;99175.03;;;6.45;100.00
10658;BME280;5377;43.276;26.930;2023-03-04T04:56:31;99171.19;;;6.47;100.00
10658;BME280;5377;43.276;26.930;2023-03-04T04:59:00;99185.59;;;6.61;100.00
10658;BME280;5377;43.276;26.930;2023-03-04T05:01:30;99184.78;;;6.52;100.00
10658;BME280;5377;43.276;26.930;2023-03-04T05:03:57;99182.41;;;6.66;100.00
10658;BME280;5377;43.276;26.930;2023-03-04T05:06:24;99185.25;;;6.64;100.00
10658;BME280;5377;43.276;26.930;2023-03-04T05:08:50;99175.94;;;6.60;100.00
10658;BME280;5377;43.276;26.930;2023-03-04T05:11:18;99191.09;;;6.60;100.00
10658;BME280;5377;43.276;26.930;2023-03-04T05:13:45;99193.25;;;6.56;100.00
10658;BME280;5377;43.276;26.930;2023-03-04T05:16:12;99168.81;;;6.21;100.00
10658;BME280;5377;43.276;26.930;2023-03-04T05:18:41;99200.69;;;6.38;100.00
10658;BME280;5377;43.276;26.930;2023-03-04T05:21:08;99206.41;;;6.27;100.00
10658;BME280;5377;43.276;26.930;2023-03-04T05:23:37;99218.88;;;6.26;100.00
10658;BME280;5377;43.276;26.930;2023-03-04T05:26:06;99224.19;;;6.26;100.00
10658;BME280;5377;43.276;26.930;2023-03-04T05:28:33;99225.16;;;6.33;100.00
10658;BME280;5377;43.276;26.930;2023-03-04T05:31:00;99214.16;;;6.36;100.00
10658;BME280;5377;43.276;26.930;2023-03-04T05:33:27;99218.28;;;6.39;100.00
10658;BME280;5377;43.276;26.930;2023-03-04T05:35:56;99218.13;;;6.40;100.00
10658;BME280;5377;43.276;26.930;2023-03-04T05:38:23;99220.22;;;6.53;100.00
10658;BME280;5377;43.276;26.930;2023-03-04T05:40:55;99211.94;;;6.48;100.00
10658;BME280;5377;43.276;26.930;2023-03-04T05:43:23;99216.19;;;6.57;100.00
10658;BME280;5377;43.276;26.930;2023-03-04T05:45:50;99222.50;;;6.64;100.00
10658;BME280;5377;43.276;26.930;2023-03-04T05:48:17;99216.66;;;6.69;100.00
10658;BME280;5377;43.276;26.930;2023-03-04T05:50:43;99220.03;;;6.85;100.00
10658;BME280;5377;43.276;26.930;2023-03-04T05:53:12;99208.34;;;6.95;100.00
10658;BME280;5377;43.276;26.930;2023-03-04T05:55:39;99207.81;;;6.91;100.00
10658;BME280;5377;43.276;26.930;2023-03-04T05:58:06;99213.97;;;6.92;100.00
10658;BME280;5377;43.276;26.930;2023-03-04T06:00:32;99218.97;;;6.95;100.00
10658;BME280;5377;43.276;26.930;2023-03-04T06:02:59;99220.13;;;6.92;100.00
10658;BME280;5377;43.276;26.930;2023-03-04T06:05:26;99227.13;;;6.70;100.00
10658;BME280;5377;43.276;26.930;2023-03-04T06:07:53;99230.38;;;6.80;100.00
10658;BME280;5377;43.276;26.930;2023-03-04T06:10:21;99232.97;;;6.88;100.00
10658;BME280;5377;43.276;26.930;2023-03-04T06:12:48;99236.53;;;6.81;100.00
10658;BME280;5377;43.276;26.930;2023-03-04T06:15:14;99234.50;;;6.83;100.00
10658;BME280;5377;43.276;26.930;2023-03-04T06:17:42;99242.78;;;6.88;100.00
10658;BME280;5377;43.276;26.930;2023-03-04T06:20:10;99247.94;;;6.89;100.00
10658;BME280;5377;43.276;26.930;2023-03-04T06:22:38;99231.84;;;6.83;100.00
10658;BME280;5377;43.276;26.930;2023-03-04T06:25:05;99231.78;;;6.91;100.00
10658;BME280;5377;43.276;26.930;2023-03-04T06:27:34;99243.06;;;7.01;100.00
10658;BME280;5377;43.276;26.930;2023-03-04T06:30:00;99238.38;;;7.03;100.00
10658;BME280;5377;43.276;26.930;2023-03-04T06:32:27;99233.16;;;7.10;100.00
10658;BME280;5377;43.276;26.930;2023-03-04T06:34:54;99235.91;;;7.02;100.00
10658;BME280;5377;43.276;26.930;2023-03-04T06:37:21;99234.25;;;7.01;100.00
10658;BME280;5377;43.276;26.930;2023-03-04T06:39:48;99235.25;;;7.00;100.00
10658;BME280;5377;43.276;26.930;2023-03-04T06:42:15;99235.13;;;7.16;100.00
10658;BME280;5377;43.276;26.930;2023-03-04T06:44:43;99230.03;;;7.29;100.00
10658;BME280;5377;43.276;26.930;2023-03-04T06:47:10;99231.97;;;7.35;100.00
10658;BME280;5377;43.276;26.930;2023-03-04T06:49:37;99234.47;;;7.37;100.00
10658;BME280;5377;43.276;26.930;2023-03-04T06:52:04;99221.88;;;7.45;100.00
10658;BME280;5377;43.276;26.930;2023-03-04T06:54:30;99232.91;;;7.42;100.00
10658;BME280;5377;43.276;26.930;2023-03-04T06:56:57;99226.03;;;7.25;100.00
10658;BME280;5377;43.276;26.930;2023-03-04T06:59:24;99222.69;;;7.31;100.00
10658;BME280;5377;43.276;26.930;2023-03-04T07:01:53;99223.09;;;7.43;100.00
10658;BME280;5377;43.276;26.930;2023-03-04T07:04:20;99211.69;;;7.49;100.00
10658;BME280;5377;43.276;26.930;2023-03-04T07:06:48;99212.56;;;7.64;100.00
10658;BME280;5377;43.276;26.930;2023-03-04T07:09:15;99212.38;;;7.66;100.00
10658;BME280;5377;43.276;26.930;2023-03-04T07:11:42;99206.03;;;7.81;100.00
10658;BME280;5377;43.276;26.930;2023-03-04T07:14:08;99207.53;;;7.99;100.00
10658;BME280;5377;43.276;26.930;2023-03-04T07:16:35;99192.38;;;7.99;100.00
10658;BME280;5377;43.276;26.930;2023-03-04T07:19:04;99195.31;;;8.34;100.00
10658;BME280;5377;43.276;26.930;2023-03-04T07:21:30;99191.06;;;8.61;100.00
10658;BME280;5377;43.276;26.930;2023-03-04T07:23:57;99191.53;;;8.64;100.00
10658;BME280;5377;43.276;26.930;2023-03-04T07:26:24;99180.13;;;8.70;100.00
10658;BME280;5377;43.276;26.930;2023-03-04T07:28:51;99178.22;;;9.07;100.00
10658;BME280;5377;43.276;26.930;2023-03-04T07:31:21;99159.84;;;9.25;100.00
10658;BME280;5377;43.276;26.930;2023-03-04T07:33:48;99161.31;;;9.56;100.00
10658;BME280;5377;43.276;26.930;2023-03-04T07:36:17;99155.59;;;9.59;100.00
10658;BME280;5377;43.276;26.930;2023-03-04T07:38:45;99148.84;;;9.69;100.00
10658;BME280;5377;43.276;26.930;2023-03-04T07:41:13;99136.91;;;9.65;100.00
10658;BME280;5377;43.276;26.930;2023-03-04T07:43:40;99139.31;;;9.54;100.00
10658;BME280;5377;43.276;26.930;2023-03-04T07:46:07;99147.28;;;9.47;100.00
10658;BME280;5377;43.276;26.930;2023-03-04T07:48:34;99138.56;;;9.66;100.00
10658;BME280;5377;43.276;26.930;2023-03-04T07:51:04;99136.50;;;9.68;100.00
10658;BME280;5377;43.276;26.930;2023-03-04T07:53:32;99126.16;;;9.93;100.00
10658;BME280;5377;43.276;26.930;2023-03-04T07:55:59;99123.84;;;10.25;100.00
10658;BME280;5377;43.276;26.930;2023-03-04T07:58:26;99122.16;;;11.11;100.00
10658;BME280;5377;43.276;26.930;2023-03-04T08:00:53;99115.50;;;11.60;100.00
10658;BME280;5377;43.276;26.930;2023-03-04T08:03:20;99119.91;;;12.19;100.00
10658;BME280;5377;43.276;26.930;2023-03-04T08:05:46;99124.16;;;12.33;95.72
10658;BME280;5377;43.276;26.930;2023-03-04T08:08:13;99104.84;;;12.56;89.00
10658;BME280;5377;43.276;26.930;2023-03-04T08:10:41;99110.22;;;12.56;86.08
10658;BME280;5377;43.276;26.930;2023-03-04T08:13:08;99107.34;;;12.82;84.21
10658;BME280;5377;43.276;26.930;2023-03-04T08:15:39;99104.34;;;13.47;81.79
10658;BME280;5377;43.276;26.930;2023-03-04T08:18:06;99107.59;;;13.56;82.97
10658;BME280;5377;43.276;26.930;2023-03-04T08:20:33;99101.00;;;14.07;83.18
10658;BME280;5377;43.276;26.930;2023-03-04T08:23:00;99106.03;;;13.66;84.41
10658;BME280;5377;43.276;26.930;2023-03-04T08:25:27;99108.50;;;13.68;83.86
10658;BME280;5377;43.276;26.930;2023-03-04T08:27:55;99096.03;;;13.30;86.44
10658;BME280;5377;43.276;26.930;2023-03-04T08:30:22;99082.03;;;13.65;86.66
10658;BME280;5377;43.276;26.930;2023-03-04T08:32:49;99091.34;;;14.17;83.50
10658;BME280;5377;43.276;26.930;2023-03-04T08:35:16;99091.16;;;14.49;78.73
10658;BME280;5377;43.276;26.930;2023-03-04T08:37:43;99089.66;;;14.94;76.14
10658;BME280;5377;43.276;26.930;2023-03-04T08:40:11;99072.47;;;15.66;70.93
10658;BME280;5377;43.276;26.930;2023-03-04T08:42:39;99089.81;;;15.46;70.36
10658;BME280;5377;43.276;26.930;2023-03-04T08:45:08;99080.78;;;15.17;70.95
10658;BME280;5377;43.276;26.930;2023-03-04T08:47:35;99084.81;;;16.13;70.00
10658;BME280;5377;43.276;26.930;2023-03-04T08:50:02;99080.41;;;15.84;67.76
10658;BME280;5377;43.276;26.930;2023-03-04T08:52:29;99085.09;;;16.00;69.80
10658;BME280;5377;43.276;26.930;2023-03-04T08:54:56;99070.34;;;16.48;66.67
10658;BME280;5377;43.276;26.930;2023-03-04T08:57:23;99082.44;;;16.17;63.74
10658;BME280;5377;43.276;26.930;2023-03-04T08:59:50;99068.47;;;16.94;64.45
10658;BME280;5377;43.276;26.930;2023-03-04T09:02:18;99062.66;;;17.35;61.68
10658;BME280;5377;43.276;26.930;2023-03-04T09:04:45;99069.84;;;17.46;62.04
10658;BME280;5377;43.276;26.930;2023-03-04T09:07:12;99056.31;;;18.34;60.78
10658;BME280;5377;43.276;26.930;2023-03-04T09:09:39;99058.50;;;18.86;58.77
10658;BME280;5377;43.276;26.930;2023-03-04T09:12:06;99059.69;;;19.74;55.00
10658;BME280;5377;43.276;26.930;2023-03-04T09:14:33;99059.34;;;19.23;52.95
10658;BME280;5377;43.276;26.930;2023-03-04T09:17:01;99048.06;;;17.58;55.54
10658;BME280;5377;43.276;26.930;2023-03-04T09:19:29;99061.44;;;17.09;57.62
10658;BME280;5377;43.276;26.930;2023-03-04T09:21:56;99077.97;;;16.96;59.65
10658;BME280;5377;43.276;26.930;2023-03-04T09:24:24;99055.69;;;16.61;58.02
10658;BME280;5377;43.276;26.930;2023-03-04T09:26:52;99056.00;;;16.64;55.69
10658;BME280;5377;43.276;26.930;2023-03-04T09:29:20;99055.03;;;16.25;53.79
10658;BME280;5377;43.276;26.930;2023-03-04T09:31:46;99061.75;;;15.01;57.14
10658;BME280;5377;43.276;26.930;2023-03-04T09:34:13;99053.56;;;15.42;57.69
10658;BME280;5377;43.276;26.930;2023-03-04T09:36:41;99048.53;;;16.38;55.25
10658;BME280;5377;43.276;26.930;2023-03-04T09:39:08;99041.06;;;17.24;52.05
10658;BME280;5377;43.276;26.930;2023-03-04T09:41:38;99015.03;;;17.78;50.68
10658;BME280;5377;43.276;26.930;2023-03-04T09:44:13;99014.44;;;17.98;47.68
10658;BME280;5377;43.276;26.930;2023-03-04T09:46:43;99022.53;;;17.93;50.13
10658;BME280;5377;43.276;26.930;2023-03-04T09:49:11;99012.53;;;17.16;48.84
10658;BME280;5377;43.276;26.930;2023-03-04T09:51:54;99004.88;;;18.39;47.53
10658;BME280;5377;43.276;26.930;2023-03-04T09:54:31;99009.84;;;18.74;47.16
10658;BME280;5377;43.276;26.930;2023-03-04T09:57:13;99008.03;;;18.85;47.21
10658;BME280;5377;43.276;26.930;2023-03-04T09:59:45;98993.22;;;19.02;46.06
10658;BME280;5377;43.276;26.930;2023-03-04T10:02:19;99006.47;;;19.41;46.12
10658;BME280;5377;43.276;26.930;2023-03-04T10:04:51;98987.25;;;19.43;44.71
10658;BME280;5377;43.276;26.930;2023-03-04T10:07:24;99002.16;;;19.03;46.49
10658;BME280;5377;43.276;26.930;2023-03-04T10:09:56;98998.84;;;19.33;46.17
10658;BME280;5377;43.276;26.930;2023-03-04T10:12:27;98998.78;;;19.70;45.78
10658;BME280;5377;43.276;26.930;2023-03-04T10:14:59;98998.91;;;20.01;44.66
10658;BME280;5377;43.276;26.930;2023-03-04T10:17:58;98992.78;;;19.63;44.84
10658;BME280;5377;43.276;26.930;2023-03-04T10:20:47;98985.97;;;19.13;45.66
10658;BME280;5377;43.276;26.930;2023-03-04T10:23:21;98994.09;;;18.44;46.90
10658;BME280;5377;43.276;26.930;2023-03-04T10:25:50;98986.84;;;18.55;46.89
10658;BME280;5377;43.276;26.930;2023-03-04T10:28:20;98991.94;;;18.19;46.83
10658;BME280;5377;43.276;26.930;2023-03-04T10:30:53;98973.44;;;17.89;48.06
10658;BME280;5377;43.276;26.930;2023-03-04T10:33:25;98988.13;;;17.33;49.68
10658;BME280;5377;43.276;26.930;2023-03-04T10:35:57;98973.94;;;17.42;51.50
10658;BME280;5377;43.276;26.930;2023-03-04T10:38:28;98980.84;;;17.55;50.24
10658;BME280;5377;43.276;26.930;2023-03-04T10:40:57;98964.28;;;17.52;51.27
10658;BME280;5377;43.276;26.930;2023-03-04T10:43:24;98967.91;;;17.19;51.08
10658;BME280;5377;43.276;26.930;2023-03-04T10:45:54;98962.81;;;16.67;51.29
10658;BME280;5377;43.276;26.930;2023-03-04T10:48:24;98981.06;;;15.86;53.62
10658;BME280;5377;43.276;26.930;2023-03-04T10:50:51;98981.06;;;15.22;55.15
10658;BME280;5377;43.276;26.930;2023-03-04T10:53:29;98969.34;;;15.17;57.58
10658;BME280;5377;43.276;26.930;2023-03-04T10:55:57;98955.59;;;15.82;56.50
10658;BME280;5377;43.276;26.930;2023-03-04T10:58:24;98912.44;;;15.30;57.14
10658;BME280;5377;43.276;26.930;2023-03-04T11:00:59;98944.63;;;16.00;57.22
10658;BME280;5377;43.276;26.930;2023-03-04T11:03:32;98938.44;;;16.83;55.31
10658;BME280;5377;43.276;26.930;2023-03-04T11:06:18;98926.75;;;16.78;54.89
10658;BME280;5377;43.276;26.930;2023-03-04T11:08:54;98928.00;;;17.09;53.97
10658;BME280;5377;43.276;26.930;2023-03-04T11:11:24;98927.72;;;16.89;55.41
10658;BME280;5377;43.276;26.930;2023-03-04T11:13:53;98916.88;;;17.27;54.79
10658;BME280;5377;43.276;26.930;2023-03-04T11:16:25;98910.75;;;17.81;54.67
10658;BME280;5377;43.276;26.930;2023-03-04T11:18:58;98899.69;;;17.82;52.81
10658;BME280;5377;43.276;26.930;2023-03-04T11:21:29;98915.16;;;16.49;54.72
10658;BME280;5377;43.276;26.930;2023-03-04T11:24:00;98909.19;;;16.47;55.21
10658;BME280;5377;43.276;26.930;2023-03-04T11:26:33;98917.78;;;15.82;57.58
10658;BME280;5377;43.276;26.930;2023-03-04T11:29:07;98920.84;;;15.45;59.97
10658;BME280;5377;43.276;26.930;2023-03-04T11:31:43;98913.91;;;14.62;64.32
10658;BME280;5377;43.276;26.930;2023-03-04T11:34:16;98912.78;;;14.40;66.85
10658;BME280;5377;43.276;26.930;2023-03-04T11:36:51;98899.81;;;15.07;66.15
10658;BME280;5377;43.276;26.930;2023-03-04T11:39:30;98889.00;;;15.59;62.96
10658;BME280;5377;43.276;26.930;2023-03-04T11:42:02;98881.66;;;16.00;60.89
10658;BME280;5377;43.276;26.930;2023-03-04T11:44:30;98873.88;;;16.53;58.43
10658;BME280;5377;43.276;26.930;2023-03-04T11:47:09;98871.44;;;16.18;59.29
10658;BME280;5377;43.276;26.930;2023-03-04T11:50:02;98871.94;;;16.66;58.62
10658;BME280;5377;43.276;26.930;2023-03-04T11:53:02;98874.03;;;16.64;59.66
10658;BME280;5377;43.276;26.930;2023-03-04T11:55:39;98855.41;;;16.84;57.31
10658;BME280;5377;43.276;26.930;2023-03-04T12:01:04;98856.56;;;17.10;56.60
10658;BME280;5377;43.276;26.930;2023-03-04T12:03:52;98858.13;;;17.50;55.93
10658;BME280;5377;43.276;26.930;2023-03-04T12:06:32;98861.91;;;17.70;55.09
10658;BME280;5377;43.276;26.930;2023-03-04T12:09:10;98862.72;;;17.27;55.12
10658;BME280;5377;43.276;26.930;2023-03-04T12:11:50;98856.22;;;17.50;54.97
10658;BME280;5377;43.276;26.930;2023-03-04T12:14:25;98853.22;;;18.00;52.87
10658;BME280;5377;43.276;26.930;2023-03-04T12:17:11;98853.72;;;17.43;54.33
10658;BME280;5377;43.276;26.930;2023-03-04T12:19:55;98863.47;;;16.79;57.23
10658;BME280;5377;43.276;26.930;2023-03-04T12:22:33;98862.88;;;16.60;57.94
10658;BME280;5377;43.276;26.930;2023-03-04T12:28:02;98867.34;;;15.99;60.12
10658;BME280;5377;43.276;26.930;2023-03-04T12:30:43;98866.41;;;15.77;62.18
10658;BME280;5377;43.276;26.930;2023-03-04T12:33:22;98859.00;;;15.44;61.37
10658;BME280;5377;43.276;26.930;2023-03-04T12:36:00;98852.94;;;14.85;63.34
10658;BME280;5377;43.276;26.930;2023-03-04T12:38:49;98857.84;;;14.88;65.52
10658;BME280;5377;43.276;26.930;2023-03-04T12:41:28;98855.72;;;14.90;65.45
10658;BME280;5377;43.276;26.930;2023-03-04T12:44:06;98849.53;;;14.78;65.61
10658;BME280;5377;43.276;26.930;2023-03-04T12:46:45;98850.06;;;15.15;63.99
10658;BME280;5377;43.276;26.930;2023-03-04T12:49:28;98847.00;;;15.11;64.21
10658;BME280;5377;43.276;26.930;2023-03-04T12:52:06;98836.25;;;15.40;62.40
10658;BME280;5377;43.276;26.930;2023-03-04T12:54:39;98829.16;;;15.22;62.90
10658;BME280;5377;43.276;26.930;2023-03-04T12:57:09;98826.94;;;15.19;63.05
10658;BME280;5377;43.276;26.930;2023-03-04T12:59:45;98820.53;;;15.08;61.11
10658;BME280;5377;43.276;26.930;2023-03-04T13:02:40;98820.38;;;15.43;60.20
10658;BME280;5377;43.276;26.930;2023-03-04T13:05:23;98817.72;;;16.05;59.87
10658;BME280;5377;43.276;26.930;2023-03-04T13:08:01;98811.75;;;16.59;56.48
10658;BME280;5377;43.276;26.930;2023-03-04T13:10:30;98811.56;;;16.43;55.80
10658;BME280;5377;43.276;26.930;2023-03-04T13:12:59;98805.59;;;15.91;56.34
10658;BME280;5377;43.276;26.930;2023-03-04T13:15:33;98797.97;;;16.21;56.78
10658;BME280;5377;43.276;26.930;2023-03-04T13:18:02;98790.75;;;16.82;55.47